sensor_id;sensor_type;location;lat;lon;timestamp;P1;durP1;ratioP1;P2;durP2;ratioP2
12437;SDS011;6283;51.330;12.374;2023-03-01T00:01:13;14.23;;;9.00;;
12437;SDS011;6283;51.330;12.374;2023-03-01T00:03:41;12.40;;;7.83;;
12437;SDS011;6283;51.330;12.374;2023-03-01T00:06:07;13.57;;;8.50;;
12437;SDS011;6283;51.330;12.374;2023-03-01T00:08:33;11.53;;;8.43;;
12437;SDS011;6283;51.330;12.374;2023-03-01T00:11:00;13.10;;;8.30;;
12437;SDS011;6283;51.330;12.374;2023-03-01T00:13:30;13.37;;;8.83;;
12437;SDS011;6283;51.330;12.374;2023-03-01T00:15:56;16.17;;;9.67;;
12437;SDS011;6283;51.330;12.374;2023-03-01T00:18:21;12.83;;;7.33;;
12437;SDS011;6283;51.330;12.374;2023-03-01T00:20:53;12.93;;;8.63;;
12437;SDS011;6283;51.330;12.374;2023-03-01T00:23:20;12.70;;;8.40;;
12437;SDS011;6283;51.330;12.374;2023-03-01T00:25:46;11.37;;;7.80;;
12437;SDS011;6283;51.330;12.374;2023-03-01T00:28:11;13.37;;;8.17;;
12437;SDS011;6283;51.330;12.374;2023-03-01T00:30:37;12.37;;;7.97;;
12437;SDS011;6283;51.330;12.374;2023-03-01T00:33:03;13.33;;;8.50;;
12437;SDS011;6283;51.330;12.374;2023-03-01T00:35:28;11.00;;;7.77;;
12437;SDS011;6283;51.330;12.374;2023-03-01T00:37:54;12.33;;;8.37;;
12437;SDS011;6283;51.330;12.374;2023-03-01T00:40:29;13.77;;;7.77;;
12437;SDS011;6283;51.330;12.374;2023-03-01T00:42:57;13.70;;;8.47;;
12437;SDS011;6283;51.330;12.374;2023-03-01T00:45:22;15.00;;;8.53;;
12437;SDS011;6283;51.330;12.374;2023-03-01T00:47:49;11.43;;;7.53;;
12437;SDS011;6283;51.330;12.374;2023-03-01T00:50:15;13.23;;;7.73;;
12437;SDS011;6283;51.330;12.374;2023-03-01T00:52:42;10.33;;;7.07;;
12437;SDS011;6283;51.330;12.374;2023-03-01T00:55:08;11.90;;;7.33;;
12437;SDS011;6283;51.330;12.374;2023-03-01T00:57:34;13.33;;;7.93;;
12437;SDS011;6283;51.330;12.374;2023-03-01T01:00:00;10.37;;;7.77;;
12437;SDS011;6283;51.330;12.374;2023-03-01T01:02:25;10.93;;;7.13;;
12437;SDS011;6283;51.330;12.374;2023-03-01T01:04:51;12.53;;;7.07;;
12437;SDS011;6283;51.330;12.374;2023-03-01T01:07:17;12.17;;;7.93;;
12437;SDS011;6283;51.330;12.374;2023-03-01T01:09:45;10.77;;;7.17;;
12437;SDS011;6283;51.330;12.374;2023-03-01T01:12:11;13.40;;;7.30;;
12437;SDS011;6283;51.330;12.374;2023-03-01T01:14:37;10.80;;;7.10;;
12437;SDS011;6283;51.330;12.374;2023-03-01T01:17:03;12.73;;;7.43;;
12437;SDS011;6283;51.330;12.374;2023-03-01T01:19:29;13.07;;;7.67;;
12437;SDS011;6283;51.330;12.374;2023-03-01T01:21:54;11.73;;;7.97;;
12437;SDS011;6283;51.330;12.374;2023-03-01T01:24:20;11.47;;;7.17;;
12437;SDS011;6283;51.330;12.374;2023-03-01T01:26:46;10.07;;;6.93;;
12437;SDS011;6283;51.330;12.374;2023-03-01T01:29:12;14.77;;;7.73;;
12437;SDS011;6283;51.330;12.374;2023-03-01T01:31:38;10.37;;;7.17;;
12437;SDS011;6283;51.330;12.374;2023-03-01T01:34:06;10.17;;;6.93;;
12437;SDS011;6283;51.330;12.374;2023-03-01T01:36:33;12.70;;;7.77;;
12437;SDS011;6283;51.330;12.374;2023-03-01T01:38:59;11.97;;;7.00;;
12437;SDS011;6283;51.330;12.374;2023-03-01T01:41:25;13.40;;;7.70;;
12437;SDS011;6283;51.330;12.374;2023-03-01T01:51:56;12.87;;;7.57;;
12437;SDS011;6283;51.330;12.374;2023-03-01T01:57:29;12.60;;;7.43;;
12437;SDS011;6283;51.330;12.374;2023-03-01T01:59:59;10.87;;;7.50;;
12437;SDS011;6283;51.330;12.374;2023-03-01T02:02:28;11.17;;;7.73;;
12437;SDS011;6283;51.330;12.374;2023-03-01T02:04:56;11.70;;;7.20;;
12437;SDS011;6283;51.330;12.374;2023-03-01T02:07:28;10.13;;;7.73;;
12437;SDS011;6283;51.330;12.374;2023-03-01T02:09:55;10.83;;;7.60;;
12437;SDS011;6283;51.330;12.374;2023-03-01T02:12:23;10.63;;;7.20;;
12437;SDS011;6283;51.330;12.374;2023-03-01T02:14:50;12.47;;;7.57;;
12437;SDS011;6283;51.330;12.374;2023-03-01T02:17:16;11.13;;;7.20;;
12437;SDS011;6283;51.330;12.374;2023-03-01T02:22:22;11.17;;;7.03;;
12437;SDS011;6283;51.330;12.374;2023-03-01T02:25:33;10.53;;;7.07;;
12437;SDS011;6283;51.330;12.374;2023-03-01T02:30:38;16.33;;;7.20;;
12437;SDS011;6283;51.330;12.374;2023-03-01T02:33:24;9.97;;;6.87;;
12437;SDS011;6283;51.330;12.374;2023-03-01T02:35:50;11.03;;;7.47;;
12437;SDS011;6283;51.330;12.374;2023-03-01T02:38:19;11.67;;;7.47;;
12437;SDS011;6283;51.330;12.374;2023-03-01T02:40:46;10.57;;;7.23;;
12437;SDS011;6283;51.330;12.374;2023-03-01T02:43:13;10.10;;;7.70;;
12437;SDS011;6283;51.330;12.374;2023-03-01T02:45:43;11.37;;;6.80;;
12437;SDS011;6283;51.330;12.374;2023-03-01T02:48:17;9.73;;;7.07;;
12437;SDS011;6283;51.330;12.374;2023-03-01T02:50:47;10.43;;;7.00;;
12437;SDS011;6283;51.330;12.374;2023-03-01T02:53:32;12.17;;;6.90;;
12437;SDS011;6283;51.330;12.374;2023-03-01T02:56:01;11.53;;;7.40;;
12437;SDS011;6283;51.330;12.374;2023-03-01T02:58:27;9.67;;;6.50;;
12437;SDS011;6283;51.330;12.374;2023-03-01T03:00:53;12.33;;;7.60;;
12437;SDS011;6283;51.330;12.374;2023-03-01T03:03:19;9.80;;;6.87;;
12437;SDS011;6283;51.330;12.374;2023-03-01T03:05:46;12.13;;;6.67;;
12437;SDS011;6283;51.330;12.374;2023-03-01T03:08:12;11.60;;;7.43;;
12437;SDS011;6283;51.330;12.374;2023-03-01T03:10:39;11.50;;;7.47;;
12437;SDS011;6283;51.330;12.374;2023-03-01T03:13:06;10.53;;;6.30;;
12437;SDS011;6283;51.330;12.374;2023-03-01T03:15:34;11.37;;;7.07;;
12437;SDS011;6283;51.330;12.374;2023-03-01T03:18:01;9.70;;;7.13;;
12437;SDS011;6283;51.330;12.374;2023-03-01T03:20:28;11.17;;;7.50;;
12437;SDS011;6283;51.330;12.374;2023-03-01T03:22:55;12.27;;;6.80;;
12437;SDS011;6283;51.330;12.374;2023-03-01T03:25:23;12.53;;;6.60;;
12437;SDS011;6283;51.330;12.374;2023-03-01T03:27:49;9.67;;;6.33;;
12437;SDS011;6283;51.330;12.374;2023-03-01T03:30:21;12.67;;;7.37;;
12437;SDS011;6283;51.330;12.374;2023-03-01T03:32:48;11.67;;;7.20;;
12437;SDS011;6283;51.330;12.374;2023-03-01T03:35:18;11.37;;;6.33;;
12437;SDS011;6283;51.330;12.374;2023-03-01T03:37:44;9.37;;;6.20;;
12437;SDS011;6283;51.330;12.374;2023-03-01T03:40:32;10.23;;;6.53;;
12437;SDS011;6283;51.330;12.374;2023-03-01T03:43:07;11.50;;;6.83;;
12437;SDS011;6283;51.330;12.374;2023-03-01T03:45:35;10.43;;;6.77;;
12437;SDS011;6283;51.330;12.374;2023-03-01T03:48:02;9.83;;;6.67;;
12437;SDS011;6283;51.330;12.374;2023-03-01T03:50:30;9.93;;;6.43;;
12437;SDS011;6283;51.330;12.374;2023-03-01T03:52:56;14.00;;;7.13;;
12437;SDS011;6283;51.330;12.374;2023-03-01T03:55:21;10.30;;;6.83;;
12437;SDS011;6283;51.330;12.374;2023-03-01T03:57:47;14.10;;;7.80;;
12437;SDS011;6283;51.330;12.374;2023-03-01T04:00:20;12.37;;;7.10;;
12437;SDS011;6283;51.330;12.374;2023-03-01T04:02:49;14.73;;;7.47;;
12437;SDS011;6283;51.330;12.374;2023-03-01T04:05:16;13.03;;;7.20;;
12437;SDS011;6283;51.330;12.374;2023-03-01T04:07:43;13.73;;;8.43;;
12437;SDS011;6283;51.330;12.374;2023-03-01T04:10:10;14.13;;;7.57;;
12437;SDS011;6283;51.330;12.374;2023-03-01T04:12:37;13.93;;;8.20;;
12437;SDS011;6283;51.330;12.374;2023-03-01T04:15:04;9.97;;;7.13;;
12437;SDS011;6283;51.330;12.374;2023-03-01T04:17:46;12.97;;;7.67;;
12437;SDS011;6283;51.330;12.374;2023-03-01T04:20:13;10.57;;;6.80;;
12437;SDS011;6283;51.330;12.374;2023-03-01T04:22:49;11.77;;;7.50;;
12437;SDS011;6283;51.330;12.374;2023-03-01T04:25:36;13.10;;;7.90;;
12437;SDS011;6283;51.330;12.374;2023-03-01T04:28:03;10.67;;;7.90;;
12437;SDS011;6283;51.330;12.374;2023-03-01T04:30:29;17.03;;;7.93;;
12437;SDS011;6283;51.330;12.374;2023-03-01T04:33:00;13.10;;;7.17;;
12437;SDS011;6283;51.330;12.374;2023-03-01T04:35:36;13.63;;;7.27;;
12437;SDS011;6283;51.330;12.374;2023-03-01T04:38:02;11.63;;;7.33;;
12437;SDS011;6283;51.330;12.374;2023-03-01T04:40:29;10.40;;;7.40;;
12437;SDS011;6283;51.330;12.374;2023-03-01T04:42:55;13.43;;;8.27;;
12437;SDS011;6283;51.330;12.374;2023-03-01T04:45:20;15.47;;;8.07;;
12437;SDS011;6283;51.330;12.374;2023-03-01T04:47:46;11.77;;;7.83;;
12437;SDS011;6283;51.330;12.374;2023-03-01T04:50:13;12.10;;;8.00;;
12437;SDS011;6283;51.330;12.374;2023-03-01T04:52:41;15.13;;;8.13;;
12437;SDS011;6283;51.330;12.374;2023-03-01T04:55:07;13.00;;;7.87;;
12437;SDS011;6283;51.330;12.374;2023-03-01T04:57:33;12.10;;;8.00;;
12437;SDS011;6283;51.330;12.374;2023-03-01T04:59:59;11.13;;;7.53;;
12437;SDS011;6283;51.330;12.374;2023-03-01T05:02:25;13.80;;;8.40;;
12437;SDS011;6283;51.330;12.374;2023-03-01T05:04:50;11.73;;;7.93;;
12437;SDS011;6283;51.330;12.374;2023-03-01T05:07:16;16.17;;;7.97;;
12437;SDS011;6283;51.330;12.374;2023-03-01T05:09:47;14.23;;;8.17;;
12437;SDS011;6283;51.330;12.374;2023-03-01T05:12:13;12.47;;;8.30;;
12437;SDS011;6283;51.330;12.374;2023-03-01T05:14:39;14.90;;;7.53;;
12437;SDS011;6283;51.330;12.374;2023-03-01T05:17:05;15.97;;;8.50;;
12437;SDS011;6283;51.330;12.374;2023-03-01T05:19:31;15.60;;;8.73;;
12437;SDS011;6283;51.330;12.374;2023-03-01T05:21:57;14.43;;;8.13;;
12437;SDS011;6283;51.330;12.374;2023-03-01T05:24:30;13.90;;;8.50;;
12437;SDS011;6283;51.330;12.374;2023-03-01T05:26:57;14.07;;;8.83;;
12437;SDS011;6283;51.330;12.374;2023-03-01T05:29:24;13.17;;;7.93;;
12437;SDS011;6283;51.330;12.374;2023-03-01T05:31:54;16.33;;;8.80;;
12437;SDS011;6283;51.330;12.374;2023-03-01T05:34:41;10.97;;;8.00;;
12437;SDS011;6283;51.330;12.374;2023-03-01T05:37:07;14.00;;;8.07;;
12437;SDS011;6283;51.330;12.374;2023-03-01T05:39:33;14.67;;;8.60;;
12437;SDS011;6283;51.330;12.374;2023-03-01T05:41:59;11.77;;;8.17;;
12437;SDS011;6283;51.330;12.374;2023-03-01T05:44:26;16.83;;;9.47;;
12437;SDS011;6283;51.330;12.374;2023-03-01T05:46:54;12.73;;;8.67;;
12437;SDS011;6283;51.330;12.374;2023-03-01T05:49:20;14.37;;;8.57;;
12437;SDS011;6283;51.330;12.374;2023-03-01T05:51:49;14.93;;;8.83;;
12437;SDS011;6283;51.330;12.374;2023-03-01T05:54:17;16.97;;;8.07;;
12437;SDS011;6283;51.330;12.374;2023-03-01T05:56:43;18.03;;;9.70;;
12437;SDS011;6283;51.330;12.374;2023-03-01T05:59:09;12.97;;;8.73;;
12437;SDS011;6283;51.330;12.374;2023-03-01T06:01:35;17.63;;;9.00;;
12437;SDS011;6283;51.330;12.374;2023-03-01T06:04:02;20.03;;;10.47;;
12437;SDS011;6283;51.330;12.374;2023-03-01T06:06:29;13.37;;;9.23;;
12437;SDS011;6283;51.330;12.374;2023-03-01T06:08:58;14.47;;;9.40;;
12437;SDS011;6283;51.330;12.374;2023-03-01T06:11:23;20.20;;;10.00;;
12437;SDS011;6283;51.330;12.374;2023-03-01T06:13:49;26.43;;;10.63;;
12437;SDS011;6283;51.330;12.374;2023-03-01T06:16:15;13.07;;;8.07;;
12437;SDS011;6283;51.330;12.374;2023-03-01T06:18:41;13.20;;;8.77;;
12437;SDS011;6283;51.330;12.374;2023-03-01T06:21:07;16.10;;;9.40;;
12437;SDS011;6283;51.330;12.374;2023-03-01T06:23:33;13.73;;;9.10;;
12437;SDS011;6283;51.330;12.374;2023-03-01T06:25:59;17.27;;;9.60;;
12437;SDS011;6283;51.330;12.374;2023-03-01T06:28:25;15.60;;;8.83;;
12437;SDS011;6283;51.330;12.374;2023-03-01T06:30:51;19.37;;;10.97;;
12437;SDS011;6283;51.330;12.374;2023-03-01T06:33:17;20.73;;;9.93;;
12437;SDS011;6283;51.330;12.374;2023-03-01T06:35:45;16.10;;;10.20;;
12437;SDS011;6283;51.330;12.374;2023-03-01T06:38:11;38.20;;;11.20;;
12437;SDS011;6283;51.330;12.374;2023-03-01T06:40:39;19.07;;;9.97;;
12437;SDS011;6283;51.330;12.374;2023-03-01T06:43:05;17.27;;;9.37;;
12437;SDS011;6283;51.330;12.374;2023-03-01T06:45:32;17.00;;;10.43;;
12437;SDS011;6283;51.330;12.374;2023-03-01T06:48:05;17.03;;;10.57;;
12437;SDS011;6283;51.330;12.374;2023-03-01T06:50:32;14.70;;;9.50;;
12437;SDS011;6283;51.330;12.374;2023-03-01T06:52:58;15.43;;;9.83;;
12437;SDS011;6283;51.330;12.374;2023-03-01T06:55:24;13.63;;;9.13;;
12437;SDS011;6283;51.330;12.374;2023-03-01T06:57:56;16.13;;;9.53;;
12437;SDS011;6283;51.330;12.374;2023-03-01T07:00:23;15.67;;;9.37;;
12437;SDS011;6283;51.330;12.374;2023-03-01T07:02:50;13.43;;;9.30;;
12437;SDS011;6283;51.330;12.374;2023-03-01T07:05:15;18.07;;;9.77;;
12437;SDS011;6283;51.330;12.374;2023-03-01T07:07:41;18.80;;;10.10;;
12437;SDS011;6283;51.330;12.374;2023-03-01T07:10:07;18.30;;;9.43;;
12437;SDS011;6283;51.330;12.374;2023-03-01T07:12:33;15.17;;;9.90;;
12437;SDS011;6283;51.330;12.374;2023-03-01T07:14:59;13.20;;;8.90;;
12437;SDS011;6283;51.330;12.374;2023-03-01T07:17:24;15.03;;;9.57;;
12437;SDS011;6283;51.330;12.374;2023-03-01T07:19:50;17.80;;;10.10;;
12437;SDS011;6283;51.330;12.374;2023-03-01T07:22:15;15.90;;;9.20;;
12437;SDS011;6283;51.330;12.374;2023-03-01T07:24:41;17.47;;;10.07;;
12437;SDS011;6283;51.330;12.374;2023-03-01T07:27:07;16.90;;;10.40;;
12437;SDS011;6283;51.330;12.374;2023-03-01T07:29:33;16.60;;;9.90;;
12437;SDS011;6283;51.330;12.374;2023-03-01T07:32:01;15.63;;;9.73;;
12437;SDS011;6283;51.330;12.374;2023-03-01T07:34:27;17.67;;;8.93;;
12437;SDS011;6283;51.330;12.374;2023-03-01T07:36:53;14.90;;;9.53;;
12437;SDS011;6283;51.330;12.374;2023-03-01T07:39:18;15.53;;;9.50;;
12437;SDS011;6283;51.330;12.374;2023-03-01T07:41:44;19.00;;;10.80;;
12437;SDS011;6283;51.330;12.374;2023-03-01T07:44:09;21.80;;;9.37;;
12437;SDS011;6283;51.330;12.374;2023-03-01T07:46:35;19.90;;;10.63;;
12437;SDS011;6283;51.330;12.374;2023-03-01T07:49:01;18.50;;;10.07;;
12437;SDS011;6283;51.330;12.374;2023-03-01T07:51:27;15.43;;;9.53;;
12437;SDS011;6283;51.330;12.374;2023-03-01T07:53:52;18.27;;;10.40;;
12437;SDS011;6283;51.330;12.374;2023-03-01T07:56:18;21.53;;;11.23;;
12437;SDS011;6283;51.330;12.374;2023-03-01T07:58:44;19.03;;;10.50;;
12437;SDS011;6283;51.330;12.374;2023-03-01T08:01:11;19.93;;;9.77;;
12437;SDS011;6283;51.330;12.374;2023-03-01T08:03:39;20.17;;;10.40;;
12437;SDS011;6283;51.330;12.374;2023-03-01T08:06:06;16.70;;;9.87;;
12437;SDS011;6283;51.330;12.374;2023-03-01T08:08:33;18.67;;;9.87;;
12437;SDS011;6283;51.330;12.374;2023-03-01T08:11:00;14.87;;;9.40;;
12437;SDS011;6283;51.330;12.374;2023-03-01T08:13:27;16.47;;;10.67;;
12437;SDS011;6283;51.330;12.374;2023-03-01T08:15:53;15.97;;;9.77;;
12437;SDS011;6283;51.330;12.374;2023-03-01T08:18:19;19.97;;;9.80;;
12437;SDS011;6283;51.330;12.374;2023-03-01T08:20:46;19.33;;;10.03;;
12437;SDS011;6283;51.330;12.374;2023-03-01T08:23:12;16.50;;;10.40;;
12437;SDS011;6283;51.330;12.374;2023-03-01T08:25:38;17.73;;;9.33;;
12437;SDS011;6283;51.330;12.374;2023-03-01T08:28:04;16.30;;;9.83;;
12437;SDS011;6283;51.330;12.374;2023-03-01T08:30:30;13.27;;;9.83;;
12437;SDS011;6283;51.330;12.374;2023-03-01T08:32:56;16.53;;;9.93;;
12437;SDS011;6283;51.330;12.374;2023-03-01T08:35:22;18.87;;;10.13;;
12437;SDS011;6283;51.330;12.374;2023-03-01T08:37:48;18.03;;;10.37;;
12437;SDS011;6283;51.330;12.374;2023-03-01T08:40:13;16.43;;;9.53;;
12437;SDS011;6283;51.330;12.374;2023-03-01T08:42:40;17.57;;;11.20;;
12437;SDS011;6283;51.330;12.374;2023-03-01T08:45:08;20.13;;;11.53;;
12437;SDS011;6283;51.330;12.374;2023-03-01T08:47:34;19.13;;;11.30;;
12437;SDS011;6283;51.330;12.374;2023-03-01T08:50:00;18.67;;;12.53;;
12437;SDS011;6283;51.330;12.374;2023-03-01T08:52:26;20.00;;;11.57;;
12437;SDS011;6283;51.330;12.374;2023-03-01T08:54:52;19.93;;;10.93;;
12437;SDS011;6283;51.330;12.374;2023-03-01T08:57:18;19.43;;;10.67;;
12437;SDS011;6283;51.330;12.374;2023-03-01T08:59:44;17.07;;;10.93;;
12437;SDS011;6283;51.330;12.374;2023-03-01T09:02:11;17.73;;;10.90;;
12437;SDS011;6283;51.330;12.374;2023-03-01T09:04:38;18.17;;;10.93;;
12437;SDS011;6283;51.330;12.374;2023-03-01T09:07:04;18.00;;;10.53;;
12437;SDS011;6283;51.330;12.374;2023-03-01T09:09:30;17.10;;;9.83;;
12437;SDS011;6283;51.330;12.374;2023-03-01T09:11:55;18.40;;;11.23;;
12437;SDS011;6283;51.330;12.374;2023-03-01T09:14:21;19.20;;;10.67;;
12437;SDS011;6283;51.330;12.374;2023-03-01T09:16:47;18.80;;;11.00;;
12437;SDS011;6283;51.330;12.374;2023-03-01T09:19:13;21.63;;;11.53;;
12437;SDS011;6283;51.330;12.374;2023-03-01T09:21:39;17.80;;;11.07;;
12437;SDS011;6283;51.330;12.374;2023-03-01T09:24:05;20.97;;;11.53;;
12437;SDS011;6283;51.330;12.374;2023-03-01T09:26:36;21.83;;;11.10;;
12437;SDS011;6283;51.330;12.374;2023-03-01T09:29:02;19.10;;;11.10;;
12437;SDS011;6283;51.330;12.374;2023-03-01T09:31:28;20.27;;;11.27;;
12437;SDS011;6283;51.330;12.374;2023-03-01T09:33:53;18.63;;;11.10;;
12437;SDS011;6283;51.330;12.374;2023-03-01T09:36:20;16.17;;;10.30;;
12437;SDS011;6283;51.330;12.374;2023-03-01T09:38:48;20.70;;;11.27;;
12437;SDS011;6283;51.330;12.374;2023-03-01T09:46:19;21.57;;;11.90;;
12437;SDS011;6283;51.330;12.374;2023-03-01T09:48:57;22.63;;;11.17;;
12437;SDS011;6283;51.330;12.374;2023-03-01T09:51:35;18.07;;;11.00;;
12437;SDS011;6283;51.330;12.374;2023-03-01T09:54:02;19.57;;;11.27;;
12437;SDS011;6283;51.330;12.374;2023-03-01T09:56:40;21.63;;;12.27;;
12437;SDS011;6283;51.330;12.374;2023-03-01T10:02:22;16.33;;;11.43;;
12437;SDS011;6283;51.330;12.374;2023-03-01T10:05:14;19.17;;;11.13;;
12437;SDS011;6283;51.330;12.374;2023-03-01T10:10:42;18.53;;;10.53;;
12437;SDS011;6283;51.330;12.374;2023-03-01T10:13:17;18.40;;;10.93;;
12437;SDS011;6283;51.330;12.374;2023-03-01T10:16:12;15.10;;;11.07;;
12437;SDS011;6283;51.330;12.374;2023-03-01T10:18:46;19.03;;;11.03;;
12437;SDS011;6283;51.330;12.374;2023-03-01T10:21:18;19.40;;;11.33;;
12437;SDS011;6283;51.330;12.374;2023-03-01T10:23:45;22.47;;;11.33;;
12437;SDS011;6283;51.330;12.374;2023-03-01T10:29:02;21.43;;;11.27;;
12437;SDS011;6283;51.330;12.374;2023-03-01T10:34:13;20.13;;;11.20;;
12437;SDS011;6283;51.330;12.374;2023-03-01T10:36:42;17.37;;;9.73;;
12437;SDS011;6283;51.330;12.374;2023-03-01T10:39:16;19.93;;;10.77;;
12437;SDS011;6283;51.330;12.374;2023-03-01T10:42:00;16.37;;;10.03;;
12437;SDS011;6283;51.330;12.374;2023-03-01T10:44:46;21.13;;;10.40;;
12437;SDS011;6283;51.330;12.374;2023-03-01T10:47:24;17.77;;;9.87;;
12437;SDS011;6283;51.330;12.374;2023-03-01T10:52:26;16.80;;;10.20;;
12437;SDS011;6283;51.330;12.374;2023-03-01T10:57:49;17.33;;;9.93;;
12437;SDS011;6283;51.330;12.374;2023-03-01T11:02:46;14.03;;;9.33;;
12437;SDS011;6283;51.330;12.374;2023-03-01T11:07:55;15.53;;;9.13;;
12437;SDS011;6283;51.330;12.374;2023-03-01T11:15:40;15.77;;;9.40;;
12437;SDS011;6283;51.330;12.374;2023-03-01T11:18:15;15.17;;;9.77;;
12437;SDS011;6283;51.330;12.374;2023-03-01T11:20:44;19.43;;;11.27;;
12437;SDS011;6283;51.330;12.374;2023-03-01T11:23:11;18.87;;;11.60;;
12437;SDS011;6283;51.330;12.374;2023-03-01T11:25:40;21.87;;;12.70;;
12437;SDS011;6283;51.330;12.374;2023-03-01T11:28:12;21.30;;;12.47;;
12437;SDS011;6283;51.330;12.374;2023-03-01T11:31:00;17.67;;;11.10;;
12437;SDS011;6283;51.330;12.374;2023-03-01T11:36:24;20.10;;;12.10;;
12437;SDS011;6283;51.330;12.374;2023-03-01T11:38:54;26.37;;;12.70;;
12437;SDS011;6283;51.330;12.374;2023-03-01T11:41:25;18.93;;;11.50;;
12437;SDS011;6283;51.330;12.374;2023-03-01T11:44:03;20.17;;;12.43;;
12437;SDS011;6283;51.330;12.374;2023-03-01T11:53:09;22.53;;;12.50;;
12437;SDS011;6283;51.330;12.374;2023-03-01T11:55:40;17.40;;;12.13;;
12437;SDS011;6283;51.330;12.374;2023-03-01T12:01:26;19.30;;;12.13;;
12437;SDS011;6283;51.330;12.374;2023-03-01T12:07:05;22.10;;;12.57;;
12437;SDS011;6283;51.330;12.374;2023-03-01T12:09:52;18.87;;;11.80;;
12437;SDS011;6283;51.330;12.374;2023-03-01T12:12:28;15.03;;;11.20;;
12437;SDS011;6283;51.330;12.374;2023-03-01T12:15:50;19.27;;;12.73;;
12437;SDS011;6283;51.330;12.374;2023-03-01T12:18:05;21.47;;;13.13;;
12437;SDS011;6283;51.330;12.374;2023-03-01T12:24:00;17.17;;;11.53;;
12437;SDS011;6283;51.330;12.374;2023-03-01T12:27:03;15.37;;;10.33;;
12437;SDS011;6283;51.330;12.374;2023-03-01T12:49:19;12.17;;;9.13;;
12437;SDS011;6283;51.330;12.374;2023-03-01T12:51:54;12.30;;;9.00;;
12437;SDS011;6283;51.330;12.374;2023-03-01T12:54:30;13.23;;;9.30;;
12437;SDS011;6283;51.330;12.374;2023-03-01T12:57:00;15.27;;;9.33;;
12437;SDS011;6283;51.330;12.374;2023-03-01T12:59:38;27.23;;;13.47;;
12437;SDS011;6283;51.330;12.374;2023-03-01T13:02:19;16.03;;;10.17;;
12437;SDS011;6283;51.330;12.374;2023-03-01T13:07:34;14.80;;;10.57;;
12437;SDS011;6283;51.330;12.374;2023-03-01T13:17:48;12.13;;;9.13;;
12437;SDS011;6283;51.330;12.374;2023-03-01T13:20:19;11.40;;;9.13;;
12437;SDS011;6283;51.330;12.374;2023-03-01T13:26:00;11.50;;;9.23;;
12437;SDS011;6283;51.330;12.374;2023-03-01T13:31:10;14.17;;;9.87;;
12437;SDS011;6283;51.330;12.374;2023-03-01T13:46:54;15.23;;;10.43;;
12437;SDS011;6283;51.330;12.374;2023-03-01T13:49:25;13.30;;;9.63;;
12437;SDS011;6283;51.330;12.374;2023-03-01T13:51:54;12.45;;;9.20;;
12437;SDS011;6283;51.330;12.374;2023-03-01T13:54:24;17.25;;;9.98;;
12437;SDS011;6283;51.330;12.374;2023-03-01T13:56:56;12.40;;;9.13;;
12437;SDS011;6283;51.330;12.374;2023-03-01T13:59:23;11.38;;;9.00;;
12437;SDS011;6283;51.330;12.374;2023-03-01T14:01:54;11.68;;;8.82;;
12437;SDS011;6283;51.330;12.374;2023-03-01T14:04:23;15.93;;;9.25;;
12437;SDS011;6283;51.330;12.374;2023-03-01T14:07:17;12.50;;;8.65;;
12437;SDS011;6283;51.330;12.374;2023-03-01T14:09:49;14.68;;;9.45;;
12437;SDS011;6283;51.330;12.374;2023-03-01T14:18:10;11.85;;;8.82;;
12437;SDS011;6283;51.330;12.374;2023-03-01T14:20:45;14.27;;;8.65;;
12437;SDS011;6283;51.330;12.374;2023-03-01T14:23:17;12.30;;;8.77;;
12437;SDS011;6283;51.330;12.374;2023-03-01T14:25:52;13.20;;;8.85;;
12437;SDS011;6283;51.330;12.374;2023-03-01T14:28:24;10.77;;;7.47;;
12437;SDS011;6283;51.330;12.374;2023-03-01T14:30:55;13.20;;;8.48;;
12437;SDS011;6283;51.330;12.374;2023-03-01T14:35:59;10.70;;;7.53;;
12437;SDS011;6283;51.330;12.374;2023-03-01T14:40:56;10.40;;;7.93;;
12437;SDS011;6283;51.330;12.374;2023-03-01T14:43:26;8.88;;;6.63;;
12437;SDS011;6283;51.330;12.374;2023-03-01T14:45:53;11.52;;;6.85;;
12437;SDS011;6283;51.330;12.374;2023-03-01T14:48:19;10.13;;;7.78;;
12437;SDS011;6283;51.330;12.374;2023-03-01T14:50:45;12.25;;;7.50;;
12437;SDS011;6283;51.330;12.374;2023-03-01T14:53:20;20.83;;;8.23;;
12437;SDS011;6283;51.330;12.374;2023-03-01T14:55:50;9.52;;;6.90;;
12437;SDS011;6283;51.330;12.374;2023-03-01T14:58:20;14.82;;;7.10;;
12437;SDS011;6283;51.330;12.374;2023-03-01T15:00:51;9.02;;;6.72;;
12437;SDS011;6283;51.330;12.374;2023-03-01T15:03:23;12.15;;;7.10;;
12437;SDS011;6283;51.330;12.374;2023-03-01T15:05:57;11.00;;;7.30;;
12437;SDS011;6283;51.330;12.374;2023-03-01T15:08:25;9.18;;;6.50;;
12437;SDS011;6283;51.330;12.374;2023-03-01T15:13:28;10.57;;;6.85;;
12437;SDS011;6283;51.330;12.374;2023-03-01T15:16:10;9.45;;;6.65;;
12437;SDS011;6283;51.330;12.374;2023-03-01T15:18:43;46.17;;;18.60;;
12437;SDS011;6283;51.330;12.374;2023-03-01T15:21:24;9.02;;;6.88;;
12437;SDS011;6283;51.330;12.374;2023-03-01T15:26:44;11.25;;;6.60;;
12437;SDS011;6283;51.330;12.374;2023-03-01T15:29:19;10.23;;;7.13;;
12437;SDS011;6283;51.330;12.374;2023-03-01T15:32:03;10.45;;;7.20;;
12437;SDS011;6283;51.330;12.374;2023-03-01T15:34:34;7.85;;;6.38;;
12437;SDS011;6283;51.330;12.374;2023-03-01T15:37:05;8.40;;;5.97;;
12437;SDS011;6283;51.330;12.374;2023-03-01T15:39:52;9.95;;;5.97;;
12437;SDS011;6283;51.330;12.374;2023-03-01T15:47:52;8.23;;;6.40;;
12437;SDS011;6283;51.330;12.374;2023-03-01T15:50:29;8.63;;;6.57;;
12437;SDS011;6283;51.330;12.374;2023-03-01T15:52:58;8.68;;;5.75;;
12437;SDS011;6283;51.330;12.374;2023-03-01T15:55:26;8.60;;;5.93;;
12437;SDS011;6283;51.330;12.374;2023-03-01T15:57:58;9.02;;;5.85;;
12437;SDS011;6283;51.330;12.374;2023-03-01T16:00:34;8.38;;;6.28;;
12437;SDS011;6283;51.330;12.374;2023-03-01T16:03:00;8.43;;;6.30;;
12437;SDS011;6283;51.330;12.374;2023-03-01T16:07:53;10.23;;;6.13;;
12437;SDS011;6283;51.330;12.374;2023-03-01T16:10:19;8.67;;;6.20;;
12437;SDS011;6283;51.330;12.374;2023-03-01T16:12:46;9.50;;;6.00;;
12437;SDS011;6283;51.330;12.374;2023-03-01T16:15:29;8.70;;;6.53;;
12437;SDS011;6283;51.330;12.374;2023-03-01T16:17:57;10.87;;;6.53;;
12437;SDS011;6283;51.330;12.374;2023-03-01T16:20:23;8.53;;;5.93;;
12437;SDS011;6283;51.330;12.374;2023-03-01T16:22:49;9.10;;;5.77;;
12437;SDS011;6283;51.330;12.374;2023-03-01T16:25:16;8.37;;;6.40;;
12437;SDS011;6283;51.330;12.374;2023-03-01T16:27:44;7.83;;;5.83;;
12437;SDS011;6283;51.330;12.374;2023-03-01T16:30:12;9.33;;;5.90;;
12437;SDS011;6283;51.330;12.374;2023-03-01T16:32:39;12.57;;;6.90;;
12437;SDS011;6283;51.330;12.374;2023-03-01T16:35:07;8.30;;;5.67;;
12437;SDS011;6283;51.330;12.374;2023-03-01T16:37:34;10.43;;;6.60;;
12437;SDS011;6283;51.330;12.374;2023-03-01T16:40:01;23.03;;;9.77;;
12437;SDS011;6283;51.330;12.374;2023-03-01T16:42:32;15.23;;;7.70;;
12437;SDS011;6283;51.330;12.374;2023-03-01T16:44:58;10.70;;;7.07;;
12437;SDS011;6283;51.330;12.374;2023-03-01T16:47:25;10.83;;;7.43;;
12437;SDS011;6283;51.330;12.374;2023-03-01T16:49:51;13.40;;;8.70;;
12437;SDS011;6283;51.330;12.374;2023-03-01T16:52:17;15.73;;;8.83;;
12437;SDS011;6283;51.330;12.374;2023-03-01T16:54:43;15.97;;;8.57;;
12437;SDS011;6283;51.330;12.374;2023-03-01T16:57:09;16.60;;;8.57;;
12437;SDS011;6283;51.330;12.374;2023-03-01T16:59:35;13.17;;;8.10;;
12437;SDS011;6283;51.330;12.374;2023-03-01T17:02:02;12.53;;;7.63;;
12437;SDS011;6283;51.330;12.374;2023-03-01T17:04:28;14.57;;;7.83;;
12437;SDS011;6283;51.330;12.374;2023-03-01T17:06:54;13.00;;;7.57;;